Darstellungsparameter: Aktuell verwendete Einstellungen:
Skalierung der Graphiken ... ?
xyx+y,   Skalierungsfaktor:      Skalierung: Modus: x, Faktor: 1
Darstellungszeitraum ... ?
Vom - - bis: - -   Zeitraum: 25.08.2020 - 25.08.2020
Min/Max/Avg-Anzeige ... ?
Zeige MMA aktuell
Zeige MMA Monat
Zeige MMA alles
Zeige --A aktuell
Zeige --A Monat
Zeige --A alles
Keine MMA-Anzeige
MMA:
Average (ber die Originaldaten)
MMA-Basis: 23.02.2003 - 19.08.2019
Quicknavigation für Darstellung... ?
Tage:      1T, 2T, 3T, 5T -1T -2T -3T -5T +1T +2T +3T +5T
Wochen: 1W, 2W, 3W -1W -2W -3W +1W +2W +3W
Monate: 1M, 3M, 6M -1M -3M -6M +1M +3M +6M
Jahre:    1J, 3J, 5J, 10J -1J -3J -5J -10J +1J +3J +5J +10J
Nutze für die Darstellung ... ?
Originaldaten oder Mittelwerte auf ...
Stundenbasis Tagesbasis Wochenbasis
Monatsbasis Jahresbasis      Datenbasis: Original-Daten
Darstellen als:
Statistik (Auto) Statistik J:M      Darstellung:
Zur Graphik,    zurück zur Übersicht aller Sensoren.
 
Tabellarische Datenbersicht: ?
 
Sensor: Nr:Datum:Temp:Feuchte:Taupunkt:
Aussen-T/F 1 25-08-2020 00:00:00 16.9 C 78 % 13.04 C
2 25-08-2020 00:05:00 16.9 C 79 % 13.24 C
3 25-08-2020 00:10:00 16.9 C 78 % 13.04 C
4 25-08-2020 00:15:00 16.8 C 79 % 13.14 C
5 25-08-2020 00:20:00 16.8 C 79 % 13.14 C
6 25-08-2020 00:25:00 16.8 C 79 % 13.14 C
7 25-08-2020 00:30:00 16.8 C 80 % 13.33 C
8 25-08-2020 00:35:00 16.8 C 79 % 13.14 C
9 25-08-2020 00:40:00 16.8 C 79 % 13.14 C
10 25-08-2020 00:45:00 16.8 C 80 % 13.33 C
11 25-08-2020 00:50:00 16.8 C 79 % 13.14 C
12 25-08-2020 00:55:00 16.9 C 78 % 13.04 C
13 25-08-2020 01:00:00 16.9 C 78 % 13.04 C
14 25-08-2020 01:05:00 16.9 C 78 % 13.04 C
15 25-08-2020 01:10:00 17.1 C 78 % 13.24 C
16 25-08-2020 01:15:00 17.1 C 79 % 13.43 C
17 25-08-2020 01:20:00 17.1 C 78 % 13.24 C
18 25-08-2020 01:25:00 17.1 C 79 % 13.43 C
19 25-08-2020 01:30:00 17.1 C 79 % 13.43 C
20 25-08-2020 01:35:00 17.1 C 79 % 13.43 C
21 25-08-2020 01:40:00 17.1 C 79 % 13.43 C
22 25-08-2020 01:45:00 17 C 79 % 13.33 C
23 25-08-2020 01:50:00 16.9 C 79 % 13.24 C
24 25-08-2020 01:55:00 16.9 C 79 % 13.24 C
25 25-08-2020 02:00:00 16.9 C 80 % 13.43 C
Sensor: Nr:Datum:Temp:Feuchte:Taupunkt:
Aussen-T/F 26 25-08-2020 02:05:00 16.9 C 79 % 13.24 C
27 25-08-2020 02:10:00 16.8 C 80 % 13.33 C
28 25-08-2020 02:15:00 16.8 C 80 % 13.33 C
29 25-08-2020 02:20:00 16.8 C 81 % 13.52 C
30 25-08-2020 02:25:00 16.8 C 82 % 13.71 C
31 25-08-2020 02:30:00 16.8 C 83 % 13.9 C
32 25-08-2020 02:35:00 16.7 C 83 % 13.8 C
33 25-08-2020 02:40:00 16.7 C 84 % 13.98 C
34 25-08-2020 02:45:00 16.6 C 83 % 13.7 C
35 25-08-2020 02:50:00 16.6 C 84 % 13.89 C
36 25-08-2020 02:55:00 16.5 C 84 % 13.79 C
37 25-08-2020 03:00:00 16.4 C 84 % 13.69 C
38 25-08-2020 03:05:00 16.3 C 84 % 13.59 C
39 25-08-2020 03:10:00 16.2 C 84 % 13.5 C
40 25-08-2020 03:15:00 16.2 C 84 % 13.5 C
41 25-08-2020 03:20:00 16.1 C 85 % 13.58 C
42 25-08-2020 03:25:00 16.1 C 85 % 13.58 C
43 25-08-2020 03:30:00 16.1 C 85 % 13.58 C
44 25-08-2020 03:35:00 15.9 C 85 % 13.38 C
45 25-08-2020 03:40:00 15.9 C 85 % 13.38 C
46 25-08-2020 03:45:00 15.8 C 85 % 13.28 C
47 25-08-2020 03:50:00 15.7 C 85 % 13.19 C
48 25-08-2020 03:55:00 15.6 C 85 % 13.09 C
49 25-08-2020 04:00:00 15.4 C 84 % 12.71 C
50 25-08-2020 04:05:00 15.3 C 84 % 12.61 C
Sensor: Nr:Datum:Temp:Feuchte:Taupunkt:
Aussen-T/F 51 25-08-2020 04:10:00 15.2 C 85 % 12.7 C
52 25-08-2020 04:15:00 15.1 C 85 % 12.6 C
53 25-08-2020 04:20:00 14.9 C 85 % 12.4 C
54 25-08-2020 04:25:00 14.8 C 85 % 12.3 C
55 25-08-2020 04:30:00 14.7 C 86 % 12.38 C
56 25-08-2020 04:35:00 14.6 C 86 % 12.29 C
57 25-08-2020 04:40:00 14.4 C 86 % 12.09 C
58 25-08-2020 04:45:00 14.3 C 87 % 12.17 C
59 25-08-2020 04:50:00 14.3 C 87 % 12.17 C
60 25-08-2020 04:55:00 14.2 C 87 % 12.07 C
61 25-08-2020 05:00:00 14.1 C 88 % 12.14 C
62 25-08-2020 05:05:00 13.9 C 88 % 11.95 C
63 25-08-2020 05:10:00 13.8 C 88 % 11.85 C
64 25-08-2020 05:15:00 13.8 C 88 % 11.85 C
65 25-08-2020 05:20:00 13.7 C 89 % 11.92 C
66 25-08-2020 05:25:00 13.7 C 89 % 11.92 C
67 25-08-2020 05:30:00 13.6 C 89 % 11.82 C
68 25-08-2020 05:35:00 13.5 C 89 % 11.72 C
69 25-08-2020 05:40:00 13.4 C 89 % 11.63 C
70 25-08-2020 05:45:00 13.3 C 89 % 11.53 C
71 25-08-2020 05:50:00 13.3 C 90 % 11.7 C
72 25-08-2020 05:55:00 13.2 C 90 % 11.6 C
73 25-08-2020 06:00:00 13.2 C 90 % 11.6 C
74 25-08-2020 06:05:00 13.1 C 90 % 11.5 C
75 25-08-2020 06:10:00 13.1 C 91 % 11.67 C
Sensor: Nr:Datum:Temp:Feuchte:Taupunkt:
Aussen-T/F 76 25-08-2020 06:15:00 13.1 C 91 % 11.67 C
77 25-08-2020 06:20:00 13 C 91 % 11.57 C
78 25-08-2020 06:25:00 12.9 C 91 % 11.47 C
79 25-08-2020 06:30:00 12.8 C 91 % 11.37 C
80 25-08-2020 06:35:00 12.8 C 91 % 11.37 C
81 25-08-2020 06:40:00 12.8 C 91 % 11.37 C
82 25-08-2020 06:45:00 12.8 C 92 % 11.53 C
83 25-08-2020 06:50:00 12.8 C 92 % 11.53 C
84 25-08-2020 06:55:00 12.9 C 93 % 11.8 C
85 25-08-2020 07:00:00 13 C 92 % 11.73 C
86 25-08-2020 07:05:00 13.1 C 92 % 11.83 C
87 25-08-2020 07:10:00 13.1 C 92 % 11.83 C
88 25-08-2020 07:15:00 13.1 C 92 % 11.83 C
89 25-08-2020 07:20:00 13.2 C 92 % 11.93 C
90 25-08-2020 07:25:00 13.2 C 93 % 12.09 C
91 25-08-2020 07:30:00 13.3 C 93 % 12.19 C
92 25-08-2020 07:35:00 13.4 C 93 % 12.29 C
93 25-08-2020 07:40:00 13.5 C 93 % 12.39 C
94 25-08-2020 07:45:00 13.6 C 93 % 12.49 C
95 25-08-2020 07:50:00 13.7 C 93 % 12.59 C
96 25-08-2020 07:55:00 13.8 C 93 % 12.69 C
97 25-08-2020 08:00:00 13.9 C 93 % 12.79 C
98 25-08-2020 08:05:00 14.1 C 93 % 12.99 C
99 25-08-2020 08:10:00 14.2 C 92 % 12.92 C
100 25-08-2020 08:15:00 14.3 C 92 % 13.02 C
Sensor: Nr:Datum:Temp:Feuchte:Taupunkt:
Aussen-T/F 101 25-08-2020 08:20:00 14.5 C 91 % 13.05 C
102 25-08-2020 08:25:00 14.7 C 90 % 13.08 C
103 25-08-2020 08:30:00 14.8 C 90 % 13.18 C
104 25-08-2020 08:35:00 15 C 89 % 13.2 C
105 25-08-2020 08:40:00 15.1 C 88 % 13.13 C
106 25-08-2020 08:45:00 15.2 C 88 % 13.23 C
107 25-08-2020 08:50:00 15.3 C 88 % 13.33 C
108 25-08-2020 08:55:00 15.4 C 87 % 13.25 C
109 25-08-2020 09:00:00 15.4 C 87 % 13.25 C
110 25-08-2020 09:05:00 15.6 C 87 % 13.45 C
111 25-08-2020 09:10:00 15.6 C 86 % 13.27 C
112 25-08-2020 09:15:00 15.7 C 86 % 13.37 C
113 25-08-2020 09:20:00 15.8 C 86 % 13.46 C
114 25-08-2020 09:25:00 15.9 C 86 % 13.56 C
115 25-08-2020 09:30:00 15.9 C 85 % 13.38 C
116 25-08-2020 09:35:00 16.1 C 85 % 13.58 C
117 25-08-2020 09:40:00 16.1 C 84 % 13.4 C
118 25-08-2020 09:45:00 16.3 C 85 % 13.77 C
119 25-08-2020 09:50:00 16.3 C 84 % 13.59 C
120 25-08-2020 09:55:00 16.4 C 83 % 13.51 C
121 25-08-2020 10:00:00 16.6 C 83 % 13.7 C
122 25-08-2020 10:05:00 16.7 C 82 % 13.61 C
123 25-08-2020 10:10:00 16.8 C 82 % 13.71 C
124 25-08-2020 10:15:00 16.9 C 82 % 13.81 C
125 25-08-2020 10:20:00 17 C 82 % 13.91 C
Sensor: Nr:Datum:Temp:Feuchte:Taupunkt:
Aussen-T/F 126 25-08-2020 10:25:00 17.1 C 82 % 14 C
127 25-08-2020 10:30:00 17.1 C 82 % 14 C
128 25-08-2020 10:35:00 17.2 C 82 % 14.1 C
129 25-08-2020 10:40:00 17.3 C 81 % 14.01 C
130 25-08-2020 10:45:00 17.4 C 81 % 14.11 C
131 25-08-2020 10:50:00 17.6 C 81 % 14.3 C
132 25-08-2020 10:55:00 17.8 C 81 % 14.5 C
133 25-08-2020 11:00:00 18.1 C 80 % 14.6 C
134 25-08-2020 11:05:00 18.3 C 79 % 14.6 C
135 25-08-2020 11:10:00 18.5 C 78 % 14.59 C
136 25-08-2020 11:15:00 18.8 C 78 % 14.88 C
137 25-08-2020 11:20:00 19.1 C 76 % 14.77 C
138 25-08-2020 11:25:00 19.4 C 73 % 14.44 C
139 25-08-2020 11:30:00 19.7 C 73 % 14.73 C
140 25-08-2020 11:35:00 20 C 71 % 14.58 C
141 25-08-2020 11:40:00 20.3 C 68 % 14.2 C
142 25-08-2020 11:45:00 20.7 C 63 % 13.41 C
143 25-08-2020 11:50:00 21.1 C 61 % 13.29 C
144 25-08-2020 11:55:00 21.4 C 61 % 13.57 C
145 25-08-2020 12:00:00 21.6 C 60 % 13.51 C
146 25-08-2020 12:05:00 21.7 C 59 % 13.34 C
147 25-08-2020 12:10:00 21.8 C 58 % 13.17 C
148 25-08-2020 12:15:00 21.9 C 59 % 13.53 C
149 25-08-2020 12:20:00 21.9 C 59 % 13.53 C
150 25-08-2020 12:25:00 21.8 C 59 % 13.44 C
Sensor: Nr:Datum:Temp:Feuchte:Taupunkt:
Aussen-T/F 151 25-08-2020 12:30:00 21.8 C 60 % 13.69 C
152 25-08-2020 12:35:00 21.8 C 60 % 13.69 C
153 25-08-2020 12:40:00 21.9 C 59 % 13.53 C
154 25-08-2020 12:45:00 22.1 C 59 % 13.72 C
155 25-08-2020 12:50:00 22.2 C 59 % 13.81 C
156 25-08-2020 12:55:00 22.3 C 58 % 13.64 C
157 25-08-2020 13:00:00 22.4 C 57 % 13.47 C
158 25-08-2020 13:05:00 22.4 C 58 % 13.73 C
159 25-08-2020 13:10:00 22.4 C 57 % 13.47 C
160 25-08-2020 13:15:00 22.4 C 57 % 13.47 C
161 25-08-2020 13:20:00 22.5 C 57 % 13.56 C
162 25-08-2020 13:25:00 22.6 C 58 % 13.92 C
163 25-08-2020 13:30:00 22.7 C 56 % 13.47 C
164 25-08-2020 13:35:00 22.8 C 56 % 13.57 C
165 25-08-2020 13:40:00 23 C 59 % 14.56 C
166 25-08-2020 13:45:00 23 C 54 % 13.2 C
167 25-08-2020 13:50:00 22.9 C 55 % 13.38 C
168 25-08-2020 13:55:00 22.8 C 55 % 13.29 C
169 25-08-2020 14:00:00 22.8 C 55 % 13.29 C
170 25-08-2020 14:05:00 22.7 C 57 % 13.75 C
171 25-08-2020 14:10:00 22.7 C 57 % 13.75 C
172 25-08-2020 14:15:00 22.6 C 56 % 13.38 C
173 25-08-2020 14:20:00 22.4 C 57 % 13.47 C
174 25-08-2020 14:25:00 22.3 C 56 % 13.1 C
175 25-08-2020 14:30:00 22.2 C 57 % 13.28 C
Sensor: Nr:Datum:Temp:Feuchte:Taupunkt:
Aussen-T/F 176 25-08-2020 14:35:00 22.2 C 56 % 13.01 C
177 25-08-2020 14:40:00 22.3 C 57 % 13.37 C
178 25-08-2020 14:45:00 22.3 C 56 % 13.1 C
179 25-08-2020 14:50:00 22.3 C 56 % 13.1 C
180 25-08-2020 14:55:00 22.3 C 58 % 13.64 C
181 25-08-2020 15:00:00 22.3 C 58 % 13.64 C
182 25-08-2020 15:05:00 22.3 C 59 % 13.9 C
183 25-08-2020 15:10:00 22.4 C 57 % 13.47 C
184 25-08-2020 15:15:00 22.4 C 59 % 14 C
185 25-08-2020 15:20:00 22.4 C 58 % 13.73 C
186 25-08-2020 15:25:00 22.4 C 59 % 14 C
187 25-08-2020 15:30:00 22.4 C 58 % 13.73 C
188 25-08-2020 15:35:00 22.4 C 61 % 14.51 C
189 25-08-2020 15:40:00 22.4 C 62 % 14.76 C
190 25-08-2020 15:45:00 22.3 C 63 % 14.92 C
191 25-08-2020 15:50:00 22.3 C 61 % 14.42 C
192 25-08-2020 15:55:00 22.3 C 70 % 16.56 C
193 25-08-2020 16:00:00 22.1 C 71 % 16.6 C
194 25-08-2020 16:05:00 21.8 C 74 % 16.96 C
195 25-08-2020 16:10:00 21.4 C 77 % 17.2 C
196 25-08-2020 16:15:00 21.1 C 79 % 17.32 C
197 25-08-2020 16:20:00 20.9 C 81 % 17.52 C
198 25-08-2020 16:25:00 20.8 C 80 % 17.22 C
199 25-08-2020 16:30:00 20.6 C 78 % 16.63 C
200 25-08-2020 16:35:00 20.6 C 78 % 16.63 C
Sensor: Nr:Datum:Temp:Feuchte:Taupunkt:
Aussen-T/F 201 25-08-2020 16:40:00 20.7 C 78 % 16.73 C
202 25-08-2020 16:45:00 20.8 C 81 % 17.42 C
203 25-08-2020 16:50:00 20.9 C 81 % 17.52 C
204 25-08-2020 16:55:00 21 C 81 % 17.61 C
205 25-08-2020 17:00:00 21 C 80 % 17.42 C
206 25-08-2020 17:05:00 21.1 C 81 % 17.71 C
207 25-08-2020 17:10:00 21.1 C 81 % 17.71 C
208 25-08-2020 17:15:00 21.2 C 80 % 17.61 C
209 25-08-2020 17:20:00 21.2 C 79 % 17.41 C
210 25-08-2020 17:25:00 21.3 C 77 % 17.1 C
211 25-08-2020 17:30:00 21.3 C 73 % 16.26 C
212 25-08-2020 17:35:00 21.4 C 77 % 17.2 C
213 25-08-2020 17:40:00 21.6 C 73 % 16.55 C
214 25-08-2020 17:45:00 21.8 C 67 % 15.4 C
215 25-08-2020 17:50:00 22.5 C 63 % 15.11 C
216 25-08-2020 17:55:00 23.4 C 63 % 15.96 C
217 25-08-2020 18:00:00 24.4 C 56 % 15.06 C
218 25-08-2020 18:05:00 25.1 C 54 % 15.14 C
219 25-08-2020 18:10:00 25.6 C 51 % 14.71 C
220 25-08-2020 18:15:00 25.9 C 48 % 14.05 C
221 25-08-2020 18:20:00 26.2 C 52 % 15.57 C
222 25-08-2020 18:25:00 26.4 C 50 % 15.14 C
223 25-08-2020 18:30:00 26.7 C 46 % 14.12 C
224 25-08-2020 18:35:00 26.6 C 48 % 14.69 C
225 25-08-2020 18:40:00 26.8 C 47 % 14.55 C
Sensor: Nr:Datum:Temp:Feuchte:Taupunkt:
Aussen-T/F 226 25-08-2020 18:45:00 27 C 45 % 14.06 C
227 25-08-2020 18:50:00 26.8 C 46 % 14.21 C
228 25-08-2020 18:55:00 26.6 C 45 % 13.69 C
229 25-08-2020 19:00:00 26.7 C 47 % 14.45 C
230 25-08-2020 19:05:00 26.6 C 46 % 14.03 C
231 25-08-2020 19:10:00 26.5 C 51 % 15.54 C
232 25-08-2020 19:15:00 26.3 C 46 % 13.76 C
233 25-08-2020 19:20:00 26.2 C 48 % 14.32 C
234 25-08-2020 19:25:00 25.9 C 51 % 14.99 C
235 25-08-2020 19:30:00 25.5 C 47 % 13.36 C
236 25-08-2020 19:35:00 24.9 C 54 % 14.95 C
237 25-08-2020 19:40:00 24.6 C 55 % 14.96 C
238 25-08-2020 19:45:00 24.2 C 55 % 14.59 C
239 25-08-2020 19:50:00 23.7 C 58 % 14.95 C
240 25-08-2020 19:55:00 23.4 C 58 % 14.67 C
241 25-08-2020 20:00:00 23.1 C 59 % 14.65 C
242 25-08-2020 20:05:00 22.9 C 57 % 13.93 C
243 25-08-2020 20:10:00 22.8 C 59 % 14.37 C
244 25-08-2020 20:15:00 22.7 C 59 % 14.28 C
245 25-08-2020 20:20:00 22.5 C 54 % 12.73 C
246 25-08-2020 20:25:00 22.4 C 52 % 12.07 C
247 25-08-2020 20:30:00 22.6 C 59 % 14.18 C
248 25-08-2020 20:35:00 22.5 C 58 % 13.83 C
249 25-08-2020 20:40:00 22.4 C 52 % 12.07 C
250 25-08-2020 20:45:00 22.6 C 57 % 13.65 C
Sensor: Nr:Datum:Temp:Feuchte:Taupunkt:
Aussen-T/F 251 25-08-2020 20:50:00 22.6 C 55 % 13.11 C
252 25-08-2020 20:55:00 22.4 C 57 % 13.47 C
253 25-08-2020 21:00:00 22.3 C 54 % 12.55 C
254 25-08-2020 21:05:00 22.2 C 56 % 13.01 C
255 25-08-2020 21:10:00 22 C 55 % 12.55 C
256 25-08-2020 21:15:00 21.8 C 59 % 13.44 C
257 25-08-2020 21:20:00 21.6 C 57 % 12.72 C
258 25-08-2020 21:25:00 21.3 C 57 % 12.44 C
259 25-08-2020 21:30:00 21.1 C 60 % 13.04 C
260 25-08-2020 21:35:00 20.8 C 60 % 12.76 C
261 25-08-2020 21:40:00 20.7 C 60 % 12.66 C
262 25-08-2020 21:45:00 20.7 C 60 % 12.66 C
263 25-08-2020 21:50:00 20.6 C 59 % 12.31 C
264 25-08-2020 21:55:00 20.5 C 59 % 12.22 C
265 25-08-2020 22:00:00 20.5 C 59 % 12.22 C
266 25-08-2020 22:05:00 20.6 C 58 % 12.05 C
267 25-08-2020 22:10:00 20.7 C 58 % 12.15 C
268 25-08-2020 22:15:00 20.7 C 58 % 12.15 C
269 25-08-2020 22:20:00 20.7 C 58 % 12.15 C
270 25-08-2020 22:25:00 20.8 C 58 % 12.24 C
271 25-08-2020 22:30:00 20.8 C 58 % 12.24 C
272 25-08-2020 22:35:00 20.8 C 56 % 11.71 C
273 25-08-2020 22:40:00 20.9 C 56 % 11.8 C
274 25-08-2020 22:45:00 21.1 C 55 % 11.71 C
275 25-08-2020 22:50:00 21.2 C 56 % 12.08 C
Sensor: Nr:Datum:Temp:Feuchte:Taupunkt:
Aussen-T/F 276 25-08-2020 22:55:00 21.2 C 56 % 12.08 C
277 25-08-2020 23:00:00 21.1 C 56 % 11.99 C
278 25-08-2020 23:05:00 21.1 C 56 % 11.99 C
279 25-08-2020 23:10:00 21.1 C 56 % 11.99 C
280 25-08-2020 23:15:00 21.1 C 57 % 12.25 C
281 25-08-2020 23:20:00 21.2 C 56 % 12.08 C
282 25-08-2020 23:25:00 21.2 C 58 % 12.61 C
283 25-08-2020 23:30:00 21.1 C 58 % 12.52 C
284 25-08-2020 23:35:00 20.9 C 59 % 12.59 C
285 25-08-2020 23:40:00 20.8 C 58 % 12.24 C
286 25-08-2020 23:45:00 20.7 C 59 % 12.41 C
287 25-08-2020 23:50:00 20.7 C 60 % 12.66 C
288 25-08-2020 23:55:00 20.6 C 60 % 12.57 C

Legende:
   Min
   Max


Maximal/Minimal-Werte vom 23.02.2003 - 19.08.2019

Sensor Min Max Avg
Temp
(Aussen-T/F)
-16.4 °C
20-12-2009  01:30:01
40.4 °C
25-07-2019  16:20:00
11.22 °C
Feuchte
(Aussen-T/F)
18 %
17-07-2015  15:55:00
100 %
07-10-2012  03:05:00
76.99 %

Die Daten stammen von einer Davis Vantage Pro 2 Wetter-Station und werden unter Linux mit der Software wview2wettercgi und aufbereitet. Alle Angaben erfolgen ohne Gewähr für ihre Vollständigkeit oder Richtigkeit.
Kontakt: Rainer Krienke krienke@uni-koblenz.de . Meine Webseiten an der Uni Koblenz oder privat.
Version: $Revision: 0.78 $